Mexico City Airport, Mexico

12:47 PM CST on February 07, 2016 (GMT -0600)
Alamos | | Change Station
CLOSE
Current Station
Personal Weather Station
Location: Ciudad De Mexico, DISTRITO FEDERAL
Elevation: 7346 ft
Nearby Weather Stations

Elev 7346 ft 19.40 °N, 99.14 °W | Updated 16 seconds ago

Mostly Cloudy
Mostly Cloudy
62.8 °F
Feels Like 62.8 °F
N
2.0
Wind Variable Wind from WSW
Gusts 2.5 mph

Today
High -- | Low -- °F
--% Chance of Precip.
Yesterday
High -- | Low -- °F
Precip. -- in
Pressure 29.93 in
Visibility 7.0 miles
Clouds Mostly Cloudy 20000 ft
Dew Point 14 °F
Humidity 15%
Rainfall 0.00 in
Snow Depth Not available.
7:09 AM 6:32 PM
Waning Crescent, 1% visible
METAR MMTO 071752Z 34003KT 7SM BKN200 18/M04 A3041 RMK SLP133 57013 961 8/002 HZY
Pressure 29.93 in
Visibility 7.0 miles
Clouds Mostly Cloudy 20000 ft
Dew Point 14 °F
Humidity 15%
Rainfall 0.00 in
Snow Depth Not available.
7:09 AM 6:32 PM
Waning Crescent, 1% visible
METAR MMTO 071752Z 34003KT 7SM BKN200 18/M04 A3041 RMK SLP133 57013 961 8/002 HZY

10-Day Weather Forecast

No radar image for this location.
×

Almanac

Astronomy

Feb. 07, 2016 Rise Set
Actual Time
Civil Twilight
Nautical Twilight
Astronomical Twilight
Moon
Length of Visible Light
Length of Day
Tomorrow will be .
, % of the Moon is Illuminated

Today's Extremes

Country Highs Country Lows

Community

WunderPhotos

Upload Photos

1,891,280 photos uploaded!

WunderBlog® & News

Nearby

Air Quality

  Air Quality AQ Index Pollutant
Not available.

Snow Depth

Station Depth Elevation

Earthquake Activity

City Distance Mag. Time & Date
Minimum magnitude displayed is 2.5.

Coastal Water Temperatures

Place Temperature

Stations

Nearby Weather Stations

Station Location Temp. Windchill Dew Point Humidity Wind Precip. Elev Updated Type